UKOO/ODS METAR and TAF weather

Enter ICAO airport designator
Station Type Date Time Source
UKOO METAR 2021/09/16 10:00 UTC NOAA

UKOO 161000Z 10003MPS 040V150 CAVOK 22/07 Q1019 R16/090095 NOSIG


Station Type Date Time Source
UKOO Decoded METAR 2021/09/16 10:00 UTC NOAA

Odesa, Ukraine (UKOO) 46-26N 030-46E 42M
Sep 16, 2021 - 06:00 AM EDT / 2021.09.16 1000 UTC
Wind: from the E (100 degrees) at 7 MPH (6 KT) (direction variable):0
Visibility: greater than 7 mile(s):0
Temperature: 71 F (22 C)
Dew Point: 44 F (7 C)
Relative Humidity: 37%
Pressure (altimeter): 30.09 in. Hg (1019 hPa)
ob: UKOO 161000Z 10003MPS 040V150 CAVOK 22/07 Q1019 R16/090095 NOSIG
cycle: 10

Station Type Date Time Source
UKOO TAF 2021/09/16 06:15 UTC NOAA

TAF UKOO 160505Z 1606/1706 07003MPS 6000 SCT020
BECMG 1614/1615 18003MPS

Example: see airport list